Time;durP1;ratioP1;P1;durP2;ratioP2;P2;SDS_P1;SDS_P2;PMS_P1;PMS_P2;Temp;Humidity;BMP_temperature;BMP_pressure;BME280_temperature;BME280_humidity;BME280_pressure;Samples;Min_cycle;Max_cycle;Signal;HPM_P1;HPM_P2
2022/01/31 00:00:18;;;;;;;;;;;6.30;96.30;;;4.09;88.69;100578.03;5069268;28;19974;-82
2022/01/31 00:02:47;;;;;;;;;;;6.30;96.30;;;4.21;89.04;100549.97;5069546;28;20343;-82
2022/01/31 00:05:14;;;;;;;;;;;6.30;96.50;;;4.20;88.26;100532.09;5069578;28;20031;-82
2022/01/31 00:07:41;;;;;;;;;;;6.30;96.30;;;4.19;87.83;100529.53;5069120;28;19951;-82
2022/01/31 00:10:12;;;;;;;;;;;6.30;96.40;;;4.14;88.45;100511.13;5056367;28;19982;-82
2022/01/31 00:12:48;;;;;;;;;;;6.30;96.30;;;4.22;88.96;100513.94;5049547;28;19955;-82
2022/01/31 00:15:16;;;;;;;;;;;6.30;96.40;;;4.19;88.46;100516.94;5057873;28;19951;-82
2022/01/31 00:17:44;;;;;;;;;;;6.20;96.30;;;4.20;89.06;100521.31;5068187;28;20019;-82
2022/01/31 00:20:11;;;;;;;;;;;6.20;96.40;;;4.28;89.09;100526.84;5069212;28;19928;-82
2022/01/31 00:22:39;;;;;;;;;;;6.20;96.70;;;4.26;89.21;100533.38;5068364;28;19928;-82
2022/01/31 00:25:06;;;;;;;;;;;6.20;96.80;;;4.30;89.04;100532.06;5069340;28;20426;-82
2022/01/31 00:27:33;;;;;;;;;;;6.30;96.60;;;4.34;88.38;100509.28;5067794;28;19928;-82
2022/01/31 00:30:00;;;;;;;;;;;6.20;96.30;;;4.28;88.02;100491.84;5067587;28;20444;-82
2022/01/31 00:32:29;;;;;;;;;;;6.30;96.20;;;4.28;87.89;100480.19;5067720;28;20018;-82
2022/01/31 00:34:58;;;;;;;;;;;6.30;95.60;;;4.33;87.76;100466.31;5067800;28;19932;-82
2022/01/31 00:37:25;;;;;;;;;;;6.30;95.80;;;4.36;87.36;100455.22;5068899;28;20030;-82
2022/01/31 00:39:52;;;;;;;;;;;6.30;96.00;;;4.33;87.99;100450.13;5068937;28;19929;-82
2022/01/31 00:42:21;;;;;;;;;;;6.30;95.70;;;4.28;87.87;100447.88;5067840;28;19990;-82
2022/01/31 00:44:52;;;;;;;;;;;6.30;95.60;;;4.24;88.07;100455.38;5069391;28;20406;-82
2022/01/31 00:47:20;;;;;;;;;;;6.30;95.90;;;4.29;88.25;100453.13;5067256;28;19933;-82
2022/01/31 00:49:53;;;;;;;;;;;6.30;96.00;;;4.29;88.17;100444.19;5068719;28;19947;-82
2022/01/31 00:52:21;;;;;;;;;;;6.30;95.90;;;4.23;87.84;100432.16;5068821;28;19928;-82
2022/01/31 00:54:48;;;;;;;;;;;6.30;95.90;;;4.28;88.52;100421.78;5067732;28;19932;-82
2022/01/31 00:57:15;;;;;;;;;;;6.30;95.80;;;4.34;88.72;100403.31;5068808;28;19928;-82
2022/01/31 00:59:43;;;;;;;;;;;6.30;95.70;;;4.36;87.88;100401.34;5067281;28;20019;-82
2022/01/31 01:02:10;;;;;;;;;;;6.30;95.90;;;4.39;88.48;100371.41;5066510;22;19972;-87
2022/01/31 01:04:38;;;;;;;;;;;6.30;96.20;;;4.37;88.32;100360.78;5047406;28;19932;-87
2022/01/31 01:07:06;;;;;;;;;;;6.30;95.90;;;4.37;87.82;100339.22;5047197;28;20004;-88
2022/01/31 01:09:35;;;;;;;;;;;6.30;96.20;;;4.35;88.21;100338.53;5047136;28;19947;-87
2022/01/31 01:12:02;;;;;;;;;;;6.30;96.10;;;4.37;88.58;100327.59;5046523;28;19924;-88
2022/01/31 01:14:29;;;;;;;;;;;6.40;96.40;;;4.39;88.82;100321.06;5027448;28;19987;-89
2022/01/31 01:16:56;;;;;;;;;;;6.40;96.30;;;4.46;89.03;100315.94;5028805;28;19968;-88
2022/01/31 01:19:23;;;;;;;;;;;6.40;96.20;;;4.45;88.17;100298.06;5007453;28;19926;-88
2022/01/31 01:21:50;;;;;;;;;;;6.40;96.00;;;4.42;89.15;100282.22;5007680;28;19934;-88
2022/01/31 01:24:17;;;;;;;;;;;6.40;96.30;;;4.45;88.49;100265.72;5045481;28;19929;-88
2022/01/31 01:26:47;;;;;;;;;;;6.40;96.40;;;4.43;88.84;100251.56;5047260;28;19928;-87
2022/01/31 01:29:16;;;;;;;;;;;6.40;96.50;;;4.45;89.07;100246.88;5029034;28;19983;-88
2022/01/31 01:31:44;;;;;;;;;;;6.40;96.50;;;4.44;89.15;100237.09;5047107;28;19924;-88
2022/01/31 01:34:12;;;;;;;;;;;6.40;96.60;;;4.40;89.13;100220.38;5040747;28;20420;-87
2022/01/31 01:36:40;;;;;;;;;;;6.40;96.10;;;4.46;89.14;100200.06;5050764;28;19935;-88
2022/01/31 01:39:07;;;;;;;;;;;6.40;96.20;;;4.48;88.71;100184.59;5032430;28;20634;-88
2022/01/31 01:41:34;;;;;;;;;;;6.40;96.40;;;4.46;89.38;100171.28;5030669;28;19929;-88
2022/01/31 01:44:03;;;;;;;;;;;6.40;96.70;;;4.47;89.63;100145.16;5045639;28;19928;-87
2022/01/31 01:46:30;;;;;;;;;;;6.40;96.80;;;4.49;89.28;100149.41;5045336;28;19935;-89
2022/01/31 01:48:59;;;;;;;;;;;6.40;96.60;;;4.46;89.67;100144.31;5031264;28;20317;-89
2022/01/31 01:51:26;;;;;;;;;;;6.40;96.60;;;4.48;89.78;100126.16;5035155;28;20356;-88
2022/01/31 01:53:53;;;;;;;;;;;6.40;96.90;;;4.56;89.06;100117.28;5050389;28;19944;-87
2022/01/31 01:56:20;;;;;;;;;;;6.40;96.80;;;4.46;89.75;100106.59;5047217;28;19933;-88
2022/01/31 01:58:49;;;;;;;;;;;6.40;96.90;;;4.44;89.53;100092.44;5030101;28;19925;-88
2022/01/31 02:01:17;;;;;;;;;;;6.40;96.60;;;4.45;89.93;100066.34;5033212;28;19929;-88
2022/01/31 02:04:01;;;;;;;;;;;6.40;96.90;;;4.43;89.82;100055.72;5050240;28;19933;-88
2022/01/31 02:06:36;;;;;;;;;;;6.40;96.80;;;4.49;90.12;100056.94;5048735;28;20670;-88
2022/01/31 02:09:05;;;;;;;;;;;6.50;97.00;;;4.55;90.28;100036.59;5049971;28;20023;-88
2022/01/31 02:11:35;;;;;;;;;;;6.40;97.10;;;4.45;90.83;100029.47;5042052;28;19928;-88
2022/01/31 02:14:03;;;;;;;;;;;6.40;97.40;;;4.56;92.05;100024.84;5036801;28;19987;-89
2022/01/31 02:16:51;;;;;;;;;;;6.40;97.90;;;4.52;93.43;100008.13;5031733;28;19932;-88
2022/01/31 02:19:23;;;;;;;;;;;6.40;99.00;;;4.39;95.30;100013.94;5030644;28;19935;-89
2022/01/31 02:22:09;;;;;;;;;;;6.50;99.80;;;4.31;96.85;100001.25;5029372;28;20357;-88
2022/01/31 02:24:55;;;;;;;;;;;6.60;99.90;;;4.21;98.85;99995.13;5050379;28;19940;-89
2022/01/31 02:27:27;;;;;;;;;;;6.40;99.90;;;4.22;100.00;99980.63;5049272;28;19991;-88
2022/01/31 02:29:54;;;;;;;;;;;6.40;99.90;;;4.22;100.00;99977.94;5039639;28;19980;-88
2022/01/31 02:32:22;;;;;;;;;;;6.30;99.90;;;4.20;100.00;99969.19;5031807;28;19929;-89
2022/01/31 02:34:53;;;;;;;;;;;6.30;99.90;;;4.22;100.00;99960.94;5049572;28;20446;-88
2022/01/31 02:37:22;;;;;;;;;;;6.30;99.90;;;4.15;100.00;99944.59;5049241;28;20074;-88
2022/01/31 02:39:50;;;;;;;;;;;6.30;99.90;;;4.16;100.00;99948.13;5029319;28;19933;-89
2022/01/31 02:42:18;;;;;;;;;;;6.30;99.90;;;4.07;100.00;99955.28;5029875;28;19925;-89
2022/01/31 02:44:46;;;;;;;;;;;6.30;99.90;;;4.05;100.00;99949.19;5050148;28;19994;-88
2022/01/31 02:47:24;;;;;;;;;;;6.20;99.90;;;4.04;100.00;99945.66;5048304;28;19932;-89
2022/01/31 02:49:56;;;;;;;;;;;6.20;99.90;;;3.96;100.00;99937.53;5029176;28;20028;-89
2022/01/31 02:52:30;;;;;;;;;;;6.20;99.90;;;4.02;100.00;99915.38;5030573;28;20365;-88
2022/01/31 02:54:57;;;;;;;;;;;6.10;99.90;;;3.86;100.00;99909.84;5043953;28;19936;-88
2022/01/31 02:57:24;;;;;;;;;;;6.10;99.90;;;3.85;100.00;99910.88;5047963;28;19994;-89
2022/01/31 02:59:51;;;;;;;;;;;6.10;99.90;;;3.78;100.00;99902.56;5030479;28;19936;-88
2022/01/31 03:02:21;;;;;;;;;;;6.00;99.90;;;3.70;100.00;99891.72;5028984;28;20286;-90
2022/01/31 03:04:48;;;;;;;;;;;6.00;99.90;;;3.79;100.00;99881.88;5049088;28;20019;-89
2022/01/31 03:07:15;;;;;;;;;;;6.00;99.90;;;3.80;100.00;99880.88;5049028;28;19999;-89
2022/01/31 03:09:43;;;;;;;;;;;6.00;99.90;;;3.70;100.00;99867.50;5048010;28;19929;-90
2022/01/31 03:12:19;;;;;;;;;;;5.90;99.90;;;3.75;100.00;99862.53;5048905;28;19936;-89
2022/01/31 03:14:50;;;;;;;;;;;5.80;99.90;;;3.76;100.00;99864.19;5025741;28;19933;-88
2022/01/31 03:17:46;;;;;;;;;;;5.90;99.90;;;3.70;100.00;99856.75;5014399;28;19926;-90
2022/01/31 03:20:14;;;;;;;;;;;5.90;99.90;;;3.65;100.00;99853.69;5048467;28;19956;-88
2022/01/31 03:22:41;;;;;;;;;;;5.90;99.90;;;3.55;100.00;99836.78;5047133;28;19985;-88
2022/01/31 03:25:10;;;;;;;;;;;5.90;99.90;;;3.48;100.00;99848.19;5028934;28;20058;-89
2022/01/31 03:27:37;;;;;;;;;;;5.90;99.90;;;3.48;100.00;99831.19;5030250;28;19929;-90
2022/01/31 03:30:06;;;;;;;;;;;5.90;99.90;;;3.54;100.00;99809.03;5028313;28;20382;-89
2022/01/31 03:32:33;;;;;;;;;;;5.90;99.90;;;3.56;100.00;99823.19;5028373;28;19956;-89
2022/01/31 03:35:01;;;;;;;;;;;5.90;99.90;;;3.69;100.00;99822.75;5008946;28;20044;-90
2022/01/31 03:37:30;;;;;;;;;;;5.80;99.90;;;3.64;100.00;99808.94;5008804;28;19987;-90
2022/01/31 03:39:57;;;;;;;;;;;5.80;99.90;;;3.63;100.00;99807.25;5048430;28;19929;-90
2022/01/31 03:42:27;;;;;;;;;;;5.80;99.90;;;3.64;100.00;99799.03;5048254;28;20355;-89
2022/01/31 03:44:54;;;;;;;;;;;5.80;99.90;;;3.59;100.00;99795.13;5031228;28;20011;-89
2022/01/31 03:47:21;;;;;;;;;;;5.80;99.90;;;3.53;100.00;99781.28;5041803;28;19929;-90
2022/01/31 03:49:49;;;;;;;;;;;5.80;99.90;;;3.53;100.00;99770.53;5047894;28;19925;-90
2022/01/31 03:52:17;;;;;;;;;;;5.90;99.90;;;3.64;100.00;99752.44;5035137;28;20263;-90
2022/01/31 03:54:47;;;;;;;;;;;5.90;99.90;;;3.75;100.00;99749.50;5028375;28;19929;-89
2022/01/31 03:57:15;;;;;;;;;;;5.80;99.90;;;3.87;100.00;99740.13;5038830;28;19933;-90
2022/01/31 04:00:15;;;;;;;;;;;5.80;99.90;;;3.82;100.00;99736.22;5037000;28;19933;-89
2022/01/31 04:02:44;;;;;;;;;;;5.90;99.90;;;3.86;100.00;99742.97;5046022;28;20335;-88
2022/01/31 04:05:12;;;;;;;;;;;5.90;99.90;;;3.80;100.00;99740.94;5049875;28;19936;-89
2022/01/31 04:07:39;;;;;;;;;;;5.90;99.90;;;3.85;100.00;99720.59;5034739;28;20567;-90
2022/01/31 04:10:07;;;;;;;;;;;5.90;99.90;;;3.86;100.00;99719.59;5029826;28;19929;-90
2022/01/31 04:12:34;;;;;;;;;;;5.90;99.90;;;3.87;100.00;99721.28;5039286;28;19933;-89
2022/01/31 04:15:01;;;;;;;;;;;6.00;99.90;;;3.94;100.00;99701.78;5032122;28;20451;-89
2022/01/31 04:17:33;;;;;;;;;;;6.00;99.90;;;3.97;100.00;99688.00;5028772;28;19929;-89
2022/01/31 04:20:00;;;;;;;;;;;6.00;99.90;;;3.95;100.00;99698.94;5029418;28;19983;-90
2022/01/31 04:22:30;;;;;;;;;;;6.00;99.90;;;3.95;100.00;99693.56;5039862;28;19935;-90
2022/01/31 04:25:01;;;;;;;;;;;6.10;99.90;;;4.02;100.00;99713.44;5049631;28;19928;-89
2022/01/31 04:27:33;;;;;;;;;;;6.20;99.90;;;4.06;100.00;99711.28;5044322;28;19935;-90
2022/01/31 04:30:00;;;;;;;;;;;6.10;99.90;;;4.08;100.00;99709.25;5049743;28;20339;-89
2022/01/31 04:32:27;;;;;;;;;;;6.10;99.90;;;4.18;100.00;99709.13;5038609;28;20336;-89
2022/01/31 04:34:55;;;;;;;;;;;6.20;99.90;;;4.17;100.00;99697.50;5029569;28;19928;-89
2022/01/31 04:37:25;;;;;;;;;;;6.20;99.90;;;4.22;100.00;99691.63;5038910;28;19929;-90
2022/01/31 04:39:54;;;;;;;;;;;6.20;99.90;;;4.23;100.00;99696.03;5049591;28;20508;-90
2022/01/31 04:42:22;;;;;;;;;;;6.20;99.90;;;4.24;100.00;99693.13;5040232;28;19936;-90
2022/01/31 04:44:49;;;;;;;;;;;6.20;99.90;;;4.26;100.00;99699.19;5029608;28;19925;-89
2022/01/31 04:47:16;;;;;;;;;;;6.30;99.90;;;4.25;100.00;99694.84;5030839;28;19925;-89
2022/01/31 04:49:43;;;;;;;;;;;6.30;99.90;;;4.29;100.00;99687.28;5029028;28;19929;-89
2022/01/31 04:52:12;;;;;;;;;;;6.30;99.90;;;4.28;100.00;99674.81;5038821;28;19929;-89
2022/01/31 04:54:39;;;;;;;;;;;6.40;99.90;;;4.43;100.00;99683.09;5049475;28;19929;-89
2022/01/31 04:57:06;;;;;;;;;;;6.70;99.90;;;4.50;100.00;99676.03;5043840;28;19936;-89
2022/01/31 04:59:33;;;;;;;;;;;6.40;99.90;;;4.50;100.00;99665.25;5029150;28;19925;-90
2022/01/31 05:02:00;;;;;;;;;;;6.40;99.90;;;4.44;100.00;99668.63;5036782;28;19956;-90
2022/01/31 05:04:27;;;;;;;;;;;6.50;99.90;;;4.47;100.00;99668.28;5049507;28;19987;-89
2022/01/31 05:06:54;;;;;;;;;;;6.50;99.90;;;4.47;100.00;99652.97;5042330;28;19925;-89
2022/01/31 05:09:22;;;;;;;;;;;6.50;99.90;;;4.55;100.00;99654.84;5031731;28;19929;-89
2022/01/31 05:11:49;;;;;;;;;;;6.50;99.90;;;4.60;100.00;99648.94;5038289;28;20535;-89
2022/01/31 05:14:17;;;;;;;;;;;6.50;99.90;;;4.60;100.00;99638.97;5053058;28;19925;-89
2022/01/31 05:16:45;;;;;;;;;;;6.60;99.90;;;4.64;100.00;99640.31;5048130;28;20364;-90
2022/01/31 05:19:12;;;;;;;;;;;6.60;99.90;;;4.72;100.00;99636.78;5032724;28;19944;-89
2022/01/31 05:21:39;;;;;;;;;;;6.60;99.90;;;4.70;100.00;99645.06;5049000;28;19928;-89
2022/01/31 05:24:07;;;;;;;;;;;6.70;99.90;;;4.75;100.00;99641.03;5049689;28;20321;-90
2022/01/31 05:26:35;;;;;;;;;;;6.70;99.90;;;4.75;100.00;99638.31;5048981;28;20006;-90
2022/01/31 05:29:02;;;;;;;;;;;6.70;99.90;;;4.81;100.00;99634.94;5052525;28;20383;-89
2022/01/31 05:31:29;;;;;;;;;;;6.70;99.90;;;4.82;100.00;99642.03;5035987;28;19935;-87
2022/01/31 05:33:56;;;;;;;;;;;6.70;99.90;;;4.80;100.00;99627.88;5032418;28;19929;-88
2022/01/31 05:36:24;;;;;;;;;;;6.80;99.90;;;4.84;100.00;99629.22;5047096;28;20035;-88
2022/01/31 05:38:51;;;;;;;;;;;6.70;99.90;;;4.85;100.00;99630.91;5052006;28;19929;-86
2022/01/31 05:41:20;;;;;;;;;;;6.80;99.90;;;4.92;100.00;99621.13;5051364;28;19932;-87
2022/01/31 05:43:48;;;;;;;;;;;6.80;99.90;;;4.97;100.00;99624.16;5052104;28;19990;-87
2022/01/31 05:46:15;;;;;;;;;;;6.80;99.90;;;4.98;100.00;99614.22;5047004;28;20300;-87
2022/01/31 05:48:42;;;;;;;;;;;6.80;99.90;;;4.96;100.00;99622.47;5052043;28;19928;-87
2022/01/31 05:51:15;;;;;;;;;;;6.80;99.90;;;4.89;100.00;99610.66;5035625;28;19929;-87
2022/01/31 05:53:42;;;;;;;;;;;6.90;99.90;;;4.92;100.00;99604.94;5032203;28;19929;-87
2022/01/31 05:56:09;;;;;;;;;;;6.90;99.90;;;4.95;100.00;99610.00;5047352;28;19929;-87
2022/01/31 05:59:05;;;;;;;;;;;6.90;99.90;;;4.96;100.00;99600.91;5051724;28;19932;-87
2022/01/31 06:01:38;;;;;;;;;;;7.00;99.90;;;4.99;100.00;99603.25;4992039;28;19925;-88
2022/01/31 06:04:05;;;;;;;;;;;6.90;99.90;;;5.01;100.00;99603.09;5012119;28;19925;-87
2022/01/31 06:06:32;;;;;;;;;;;6.90;99.90;;;4.99;100.00;99594.31;5049078;28;19925;-89
2022/01/31 06:08:59;;;;;;;;;;;6.90;99.90;;;4.99;100.00;99595.19;5037210;28;19972;-88
2022/01/31 06:11:26;;;;;;;;;;;7.00;99.90;;;4.98;100.00;99593.47;5030351;28;19929;-85
2022/01/31 06:13:55;;;;;;;;;;;6.90;99.90;;;4.94;100.00;99581.34;5043977;28;20047;-87
2022/01/31 06:16:22;;;;;;;;;;;7.00;99.90;;;5.00;100.00;99579.84;5051437;28;19956;-88
2022/01/31 06:18:51;;;;;;;;;;;7.00;99.90;;;5.06;100.00;99574.59;5031828;28;20040;-86
2022/01/31 06:21:18;;;;;;;;;;;7.00;99.90;;;5.03;100.00;99569.53;5030443;28;19952;-86
2022/01/31 06:23:45;;;;;;;;;;;7.00;99.90;;;5.01;100.00;99578.84;5042217;28;19929;-87
2022/01/31 06:26:13;;;;;;;;;;;7.00;99.90;;;5.12;100.00;99583.00;5051478;28;19924;-87
2022/01/31 06:28:41;;;;;;;;;;;6.90;99.90;;;5.12;100.00;99575.75;5047953;28;19924;-86
2022/01/31 06:31:29;;;;;;;;;;;7.00;99.90;;;5.14;100.00;99578.28;5051151;28;20020;-86
2022/01/31 06:33:57;;;;;;;;;;;7.00;99.90;;;5.14;100.00;99560.25;5039357;28;19925;-86
2022/01/31 06:36:24;;;;;;;;;;;6.90;99.90;;;5.13;100.00;99558.56;5031137;28;19929;-86
2022/01/31 06:38:52;;;;;;;;;;;7.00;99.90;;;5.07;100.00;99552.00;5031624;28;19932;-86
2022/01/31 06:41:19;;;;;;;;;;;7.00;99.90;;;5.05;100.00;99556.72;5031208;28;19971;-86
2022/01/31 06:43:47;;;;;;;;;;;7.00;99.90;;;5.02;100.00;99542.75;5029017;28;19961;-88
2022/01/31 06:46:14;;;;;;;;;;;7.00;99.90;;;5.05;100.00;99550.50;5026260;28;20022;-91
2022/01/31 06:48:41;;;;;;;;;;;7.00;99.90;;;5.14;100.00;99548.59;5036998;28;20047;-82
2022/01/31 06:51:10;;;;;;;;;;;7.00;99.90;;;5.05;100.00;99543.25;5029819;28;19935;-88
2022/01/31 06:53:38;;;;;;;;;;;7.00;99.90;;;5.05;100.00;99548.63;5025383;28;20115;-87
2022/01/31 06:56:05;;;;;;;;;;;7.00;99.90;;;5.03;100.00;99563.31;5029829;28;20397;-88
2022/01/31 06:58:32;;;;;;;;;;;7.00;99.90;;;5.01;100.00;99555.41;5031116;28;19929;-88
2022/01/31 07:00:59;;;;;;;;;;;7.10;99.90;;;5.02;100.00;99578.63;5029128;28;20016;-88
2022/01/31 07:03:26;;;;;;;;;;;6.90;99.90;;;4.85;100.00;99598.56;5043117;28;20345;-88
2022/01/31 07:05:53;;;;;;;;;;;6.80;99.90;;;4.78;100.00;99593.00;5041968;28;19972;-89
2022/01/31 07:08:22;;;;;;;;;;;6.80;99.90;;;4.70;100.00;99601.94;5030271;28;20020;-87
2022/01/31 07:10:52;;;;;;;;;;;6.70;99.90;;;4.46;100.00;99605.47;5028929;28;19936;-87
2022/01/31 07:13:36;;;;;;;;;;;6.60;99.90;;;4.43;100.00;99597.72;5037182;28;19968;-87
2022/01/31 07:16:03;;;;;;;;;;;6.60;99.90;;;4.30;100.00;99600.94;5030025;28;19929;-87
2022/01/31 07:18:32;;;;;;;;;;;6.50;99.90;;;4.22;100.00;99583.91;5031784;28;20487;-88
2022/01/31 07:20:59;;;;;;;;;;;6.50;99.90;;;4.25;100.00;99576.34;5029795;28;19983;-87
2022/01/31 07:23:38;;;;;;;;;;;6.50;99.90;;;4.26;100.00;99583.38;5030461;28;19932;-87
2022/01/31 07:26:05;;;;;;;;;;;6.50;99.90;;;4.40;100.00;99578.34;5030285;28;19929;-88
2022/01/31 07:28:32;;;;;;;;;;;6.40;99.90;;;4.37;100.00;99557.16;5031744;28;19936;-88
2022/01/31 07:30:59;;;;;;;;;;;6.40;99.90;;;4.37;100.00;99581.41;5020092;28;20211;-87
2022/01/31 07:33:26;;;;;;;;;;;6.40;99.90;;;4.30;100.00;99568.59;5029279;28;19933;-88
2022/01/31 07:35:53;;;;;;;;;;;6.40;99.90;;;4.26;100.00;99567.22;5051614;22;20666;-83
2022/01/31 07:38:21;;;;;;;;;;;6.40;99.90;;;4.22;100.00;99571.28;5052912;28;19929;-83
2022/01/31 07:40:51;;;;;;;;;;;6.40;99.90;;;4.21;100.00;99566.91;5050161;28;20734;-83
2022/01/31 07:43:18;;;;;;;;;;;6.40;99.90;;;4.21;100.00;99569.59;5059555;28;19928;-83
2022/01/31 07:45:45;;;;;;;;;;;6.40;99.90;;;4.24;100.00;99569.25;5069851;28;19935;-84
2022/01/31 07:48:12;;;;;;;;;;;6.40;99.90;;;4.20;100.00;99556.31;5046557;28;19964;-84
2022/01/31 07:50:39;;;;;;;;;;;6.40;99.90;;;4.22;100.00;99571.28;5049673;28;20026;-83
2022/01/31 07:53:06;;;;;;;;;;;6.40;99.90;;;4.16;100.00;99563.03;5048920;28;19948;-83
2022/01/31 07:55:34;;;;;;;;;;;6.40;99.90;;;4.21;100.00;99569.59;5049754;28;20019;-83
2022/01/31 07:58:02;;;;;;;;;;;6.40;99.90;;;4.21;100.00;99577.69;5049388;28;19929;-83
2022/01/31 08:00:30;;;;;;;;;;;6.40;99.90;;;4.24;100.00;99565.72;5049371;28;19929;-83
2022/01/31 08:02:57;;;;;;;;;;;6.40;99.90;;;4.26;100.00;99561.00;5049386;28;19936;-83
2022/01/31 08:05:24;;;;;;;;;;;6.40;99.90;;;4.29;100.00;99550.75;5049757;28;20031;-83
2022/01/31 08:07:51;;;;;;;;;;;6.40;99.90;;;4.29;100.00;99558.81;5047871;28;20415;-83
2022/01/31 08:10:19;;;;;;;;;;;6.40;99.90;;;4.25;100.00;99565.56;5049372;28;20015;-83
2022/01/31 08:12:46;;;;;;;;;;;6.40;99.90;;;4.27;100.00;99571.63;5049378;28;19929;-83
2022/01/31 08:15:22;;;;;;;;;;;6.40;99.90;;;4.27;100.00;99546.56;5049786;28;19983;-83
2022/01/31 08:17:52;;;;;;;;;;;6.40;99.90;;;4.25;100.00;99554.78;5049382;28;19933;-83
2022/01/31 08:20:19;;;;;;;;;;;6.40;99.90;;;4.26;100.00;99540.31;5066205;28;19936;-83
2022/01/31 08:22:50;;;;;;;;;;;6.40;99.90;;;4.34;100.00;99527.84;5069869;28;20393;-83
2022/01/31 08:25:17;;;;;;;;;;;6.40;99.90;;;4.35;100.00;99529.53;5069579;28;19940;-82
2022/01/31 08:27:48;;;;;;;;;;;6.40;99.90;;;4.32;100.00;99519.94;5053493;28;19979;-82
2022/01/31 08:30:22;;;;;;;;;;;6.30;99.90;;;4.27;100.00;99509.69;5049568;28;19935;-82
2022/01/31 08:32:59;;;;;;;;;;;6.40;99.90;;;4.30;100.00;99522.81;5049675;28;19931;-82
2022/01/31 08:38:11;;;;;;;;;;;6.40;99.90;;;4.33;100.00;99513.56;5044829;28;19944;-81
2022/01/31 08:40:38;;;;;;;;;;;6.40;99.90;;;4.33;100.00;99512.72;5029575;28;19932;-82
2022/01/31 08:43:06;;;;;;;;;;;6.40;99.90;;;4.33;100.00;99523.50;5047919;28;19931;-82
2022/01/31 08:45:35;;;;;;;;;;;6.40;99.90;;;4.40;100.00;99514.56;5053623;28;19960;-82
2022/01/31 08:48:03;;;;;;;;;;;6.30;99.90;;;4.42;100.00;99517.09;5053015;28;20345;-82
2022/01/31 08:50:30;;;;;;;;;;;6.30;99.90;;;4.36;100.00;99496.19;5053364;28;20400;-82
2022/01/31 08:52:58;;;;;;;;;;;6.30;99.90;;;4.33;100.00;99491.16;5053018;28;19929;-82
2022/01/31 08:55:25;;;;;;;;;;;6.40;99.90;;;4.33;100.00;99504.63;5053245;28;19929;-82
2022/01/31 08:57:55;;;;;;;;;;;6.40;99.90;;;4.41;100.00;99500.06;5051422;28;19951;-82
2022/01/31 09:00:32;;;;;;;;;;;6.30;99.90;;;4.38;100.00;99502.25;5051552;28;20420;-82
2022/01/31 09:03:17;;;;;;;;;;;6.30;99.90;;;4.47;100.00;99498.53;5052647;28;20273;-81
2022/01/31 09:05:44;;;;;;;;;;;6.30;99.90;;;4.40;100.00;99498.41;5052127;28;19928;-82
2022/01/31 09:08:11;;;;;;;;;;;6.40;99.90;;;4.35;100.00;99489.16;5041674;28;20030;-81
2022/01/31 09:10:39;;;;;;;;;;;6.40;99.90;;;4.33;100.00;99491.16;5030915;28;19933;-82
2022/01/31 09:13:06;;;;;;;;;;;6.40;99.90;;;4.36;100.00;99490.81;5033887;28;20402;-82
2022/01/31 09:15:34;;;;;;;;;;;6.40;99.90;;;4.36;100.00;99497.06;5032918;28;19951;-81
2022/01/31 09:18:02;;;;;;;;;;;6.60;99.90;;;4.38;100.00;99488.78;5047405;28;19929;-83
2022/01/31 09:20:29;;;;;;;;;;;6.40;99.90;;;4.38;100.00;99478.00;5052562;28;19925;-83
2022/01/31 09:22:57;;;;;;;;;;;6.40;99.90;;;4.45;100.00;99470.94;5052588;28;19979;-83
2022/01/31 09:25:26;;;;;;;;;;;6.40;99.90;;;4.37;100.00;99479.03;5051910;28;19932;-82
2022/01/31 09:27:54;;;;;;;;;;;6.40;99.90;;;4.43;100.00;99478.34;5051225;28;19936;-82
2022/01/31 09:30:21;;;;;;;;;;;6.40;99.90;;;4.45;100.00;99479.84;5051800;28;20028;-82
2022/01/31 09:32:49;;;;;;;;;;;6.40;99.90;;;4.47;100.00;99471.59;5052156;28;20345;-83
2022/01/31 09:35:17;;;;;;;;;;;6.40;99.90;;;4.47;100.00;99474.31;5049372;28;19979;-83
2022/01/31 09:37:44;;;;;;;;;;;6.40;99.90;;;4.52;100.00;99474.63;5052164;28;19929;-83
2022/01/31 09:40:19;;;;;;;;;;;6.40;99.90;;;4.47;100.00;99467.09;5052076;28;19997;-83
2022/01/31 09:43:11;;;;;;;;;;;6.40;99.90;;;4.45;100.00;99473.63;5052112;28;19928;-83
2022/01/31 09:45:55;;;;;;;;;;;6.40;99.90;;;4.51;100.00;99462.16;5052272;28;19933;-83
2022/01/31 09:48:35;;;;;;;;;;;6.40;99.90;;;4.52;100.00;99479.19;5032194;28;19929;-83
2022/01/31 09:51:07;;;;;;;;;;;6.40;99.90;;;4.58;100.00;99489.28;5033290;28;19972;-83
2022/01/31 09:53:37;;;;;;;;;;;6.50;99.90;;;4.59;100.00;99480.16;5045198;28;19928;-83
2022/01/31 09:56:08;;;;;;;;;;;6.50;99.90;;;4.55;100.00;99474.31;5042176;28;20388;-83
2022/01/31 09:58:35;;;;;;;;;;;6.50;99.90;;;4.50;100.00;99469.41;5049057;28;20547;-83
2022/01/31 10:01:06;;;;;;;;;;;6.50;99.90;;;4.54;100.00;99469.09;5040606;28;20439;-82
2022/01/31 10:03:33;;;;;;;;;;;6.50;99.90;;;4.54;100.00;99480.69;5050083;28;19998;-83
2022/01/31 10:06:00;;;;;;;;;;;6.50;99.90;;;4.60;100.00;99488.09;5038299;28;19929;-83
2022/01/31 10:08:30;;;;;;;;;;;6.50;99.90;;;4.58;100.00;99476.63;5044218;28;20019;-83
2022/01/31 10:11:01;;;;;;;;;;;6.50;99.90;;;4.59;100.00;99481.03;5051263;28;19968;-83
2022/01/31 10:16:30;;;;;;;;;;;6.50;99.90;;;4.54;100.00;99493.34;5048509;28;19933;-83
2022/01/31 10:19:06;;;;;;;;;;;6.50;99.90;;;4.56;100.00;99494.84;5051454;28;19936;-82
2022/01/31 10:21:53;;;;;;;;;;;6.50;99.90;;;4.62;100.00;99515.69;5051437;28;19924;-83
2022/01/31 10:24:21;;;;;;;;;;;6.50;99.90;;;4.66;100.00;99514.38;5051473;28;19990;-84
2022/01/31 10:26:49;;;;;;;;;;;6.60;99.90;;;4.72;100.00;99530.84;5051172;28;20375;-84
2022/01/31 10:29:17;;;;;;;;;;;6.60;99.90;;;4.77;100.00;99531.19;5046348;28;20365;-83
2022/01/31 10:32:01;;;;;;;;;;;6.60;99.90;;;4.81;100.00;99537.91;5048524;28;20023;-83
2022/01/31 10:34:29;;;;;;;;;;;6.60;99.90;;;4.79;100.00;99548.03;5049446;28;19932;-83
2022/01/31 10:37:04;;;;;;;;;;;6.60;99.90;;;4.80;100.00;99547.03;5039894;28;20791;-82
2022/01/31 10:53:52;;;;;;;;;;;6.70;99.90;;;4.84;100.00;99554.59;5013295;28;19929;-82
2022/01/31 10:56:21;;;;;;;;;;;6.70;99.90;;;4.90;100.00;99566.53;5041417;28;19932;-82
2022/01/31 10:58:57;;;;;;;;;;;6.70;99.90;;;4.87;100.00;99572.25;5044207;28;20456;-81
2022/01/31 11:01:25;;;;;;;;;;;6.80;99.90;;;4.91;100.00;99576.28;5035883;28;19936;-81
2022/01/31 11:03:53;;;;;;;;;;;6.70;99.90;;;4.85;100.00;99582.38;5050428;28;19952;-82
2022/01/31 11:06:21;;;;;;;;;;;6.80;99.90;;;4.80;100.00;99574.81;5042618;28;19968;-81
2022/01/31 11:08:48;;;;;;;;;;;6.80;99.90;;;4.76;100.00;99567.22;5049841;28;20613;-84
2022/01/31 11:11:15;;;;;;;;;;;6.70;99.90;;;4.82;100.00;99582.75;5049609;28;21711;-84
2022/01/31 11:13:44;;;;;;;;;;;6.80;99.90;;;4.86;100.00;99584.06;5049085;28;19925;-84
2022/01/31 11:16:11;;;;;;;;;;;6.80;99.90;;;4.90;100.00;99580.03;5041611;28;20388;-84
2022/01/31 11:18:42;;;;;;;;;;;6.70;99.90;;;4.93;100.00;99568.91;5049776;28;20006;-84
2022/01/31 11:21:09;;;;;;;;;;;6.70;99.90;;;4.90;100.00;99586.25;5041936;28;19960;-84
2022/01/31 11:23:40;;;;;;;;;;;6.80;99.90;;;4.98;100.00;99595.34;5042694;28;19929;-84
2022/01/31 11:26:09;;;;;;;;;;;6.80;99.90;;;4.99;100.00;99600.56;5050121;28;20385;-84
2022/01/31 11:28:39;;;;;;;;;;;6.80;99.90;;;4.95;100.00;99612.72;5049703;28;19929;-84
2022/01/31 11:31:08;;;;;;;;;;;6.80;99.90;;;4.97;100.00;99607.13;5048800;28;19967;-84
2022/01/31 11:33:36;;;;;;;;;;;6.80;99.90;;;4.95;100.00;99610.00;5046627;28;19928;-84
2022/01/31 11:36:04;;;;;;;;;;;6.80;99.90;;;4.99;100.00;99616.75;5048337;28;20679;-84
2022/01/31 11:38:33;;;;;;;;;;;6.80;99.90;;;5.01;100.00;99617.41;5047027;28;19972;-84
2022/01/31 11:41:04;;;;;;;;;;;6.80;99.90;;;5.05;100.00;99626.84;5042201;28;19971;-84
2022/01/31 11:43:32;;;;;;;;;;;6.80;99.90;;;5.05;100.00;99631.41;5046380;28;19935;-84
2022/01/31 11:46:01;;;;;;;;;;;6.90;99.90;;;5.05;100.00;99639.50;5049068;28;19944;-84
2022/01/31 11:48:30;;;;;;;;;;;6.80;99.90;;;4.99;100.00;99634.75;5045295;28;19925;-84
2022/01/31 11:50:59;;;;;;;;;;;6.90;99.90;;;5.01;100.00;99641.69;5041001;28;20028;-84
2022/01/31 11:53:31;;;;;;;;;;;6.90;99.90;;;5.02;100.00;99651.44;5047500;28;20027;-84